createdAt,value
2022-09-15T00:01:10.186Z,71.66
2022-09-15T00:03:43.774Z,71.28
2022-09-15T00:06:11.468Z,71.15
2022-09-15T00:08:39.027Z,70.83
2022-09-15T00:11:18.074Z,70.79
2022-09-15T00:13:45.818Z,70.87
2022-09-15T00:16:15.199Z,71.37
2022-09-15T00:18:44.310Z,71.11
2022-09-15T00:21:23.362Z,72.03
2022-09-15T00:23:50.734Z,73.19
2022-09-15T00:26:20.428Z,72.67
2022-09-15T00:28:48.579Z,71.90
2022-09-15T00:31:19.500Z,70.82
2022-09-15T00:33:51.634Z,70.41
2022-09-15T00:36:20.105Z,70.44
2022-09-15T00:38:47.749Z,70.67
2022-09-15T00:41:17.662Z,70.99
2022-09-15T00:43:53.796Z,70.28
2022-09-15T00:46:45.201Z,70.45
2022-09-15T00:49:25.068Z,70.31
2022-09-15T00:51:58.283Z,70.08
2022-09-15T00:54:36.893Z,70.49
2022-09-15T00:57:16.013Z,71.53
2022-09-15T00:59:44.612Z,72.97
2022-09-15T01:02:22.609Z,73.17
2022-09-15T01:04:56.010Z,73.25
2022-09-15T01:07:43.350Z,73.96
2022-09-15T01:10:32.217Z,72.84
2022-09-15T01:13:02.978Z,73.99
2022-09-15T01:15:37.854Z,72.32
2022-09-15T01:18:05.205Z,71.88
2022-09-15T01:21:02.309Z,71.34
2022-09-15T01:23:48.572Z,71.54
2022-09-15T01:26:34.243Z,70.82
2022-09-15T01:29:25.540Z,70.51
2022-09-15T01:32:16.548Z,70.03
2022-09-15T01:35:03.799Z,70.32
2022-09-15T01:37:37.298Z,69.69
2022-09-15T01:40:06.734Z,70.06
2022-09-15T01:42:35.392Z,70.46
2022-09-15T01:45:09.431Z,70.47
2022-09-15T01:47:37.290Z,70.26
2022-09-15T01:50:15.525Z,70.79
2022-09-15T01:52:47.067Z,71.03
2022-09-15T01:55:22.997Z,71.73
2022-09-15T01:57:50.731Z,71.08
2022-09-15T02:00:17.943Z,70.86
2022-09-15T02:02:56.038Z,70.71
2022-09-15T02:05:32.569Z,71.01
2022-09-15T02:08:25.290Z,71.23
2022-09-15T02:11:00.870Z,71.10
2022-09-15T02:14:10.621Z,71.27
2022-09-15T02:16:41.218Z,71.49
2022-09-15T02:19:11.372Z,71.65
2022-09-15T02:21:55.321Z,71.20
2022-09-15T02:24:29.099Z,70.84
2022-09-15T02:26:57.899Z,70.31
2022-09-15T02:29:27.428Z,70.56
2022-09-15T02:32:03.756Z,70.01
2022-09-15T02:34:37.707Z,70.30
2022-09-15T02:37:05.622Z,70.36
2022-09-15T02:39:38.858Z,70.67
2022-09-15T02:42:06.774Z,70.60
2022-09-15T02:44:34.365Z,70.71
2022-09-15T02:47:02.089Z,70.72
2022-09-15T02:49:29.591Z,70.88
2022-09-15T02:51:56.531Z,71.26
2022-09-15T02:54:23.475Z,71.15
2022-09-15T02:56:50.694Z,71.24
2022-09-15T02:59:17.641Z,71.43
2022-09-15T03:01:45.110Z,71.65
2022-09-15T03:04:12.784Z,71.88
2022-09-15T03:06:39.896Z,72.75
2022-09-15T03:09:08.568Z,73.65
2022-09-15T03:11:36.782Z,73.09
2022-09-15T03:14:06.568Z,73.04
2022-09-15T03:16:35.201Z,74.15
2022-09-15T03:19:03.385Z,74.69
2022-09-15T03:21:30.717Z,74.70
2022-09-15T03:23:59.089Z,74.87
2022-09-15T03:26:26.893Z,75.30
2022-09-15T03:28:53.862Z,75.68
2022-09-15T03:31:26.742Z,74.71
2022-09-15T03:33:56.154Z,75.23
2022-09-15T03:36:23.208Z,74.85
2022-09-15T03:38:50.275Z,75.86
2022-09-15T03:41:17.535Z,75.74
2022-09-15T03:43:44.577Z,75.42
2022-09-15T03:46:12.097Z,75.33
2022-09-15T03:48:40.718Z,75.96
2022-09-15T03:51:09.226Z,75.95
2022-09-15T03:53:39.193Z,75.82
2022-09-15T03:56:18.833Z,75.60
2022-09-15T03:58:45.750Z,75.83
2022-09-15T04:01:13.718Z,75.45
2022-09-15T04:03:51.080Z,75.89
2022-09-15T04:06:21.048Z,76.74
2022-09-15T04:08:49.438Z,76.53
2022-09-15T04:11:21.140Z,76.54
2022-09-15T04:13:49.023Z,77.28
2022-09-15T04:16:25.381Z,76.88
2022-09-15T04:18:54.236Z,76.60
2022-09-15T04:21:25.785Z,76.55
2022-09-15T04:23:54.954Z,76.44
2022-09-15T04:26:33.155Z,76.35
2022-09-15T04:29:04.525Z,76.39
2022-09-15T04:31:33.972Z,76.53
2022-09-15T04:34:01.204Z,74.59
2022-09-15T04:36:29.426Z,74.71
2022-09-15T04:38:58.859Z,74.83
2022-09-15T04:41:28.132Z,74.67
2022-09-15T04:43:55.783Z,73.90
2022-09-15T04:46:25.162Z,73.58
2022-09-15T04:48:52.430Z,73.74
2022-09-15T04:51:23.060Z,73.34
2022-09-15T04:54:17.739Z,73.48
2022-09-15T04:56:47.411Z,73.22
2022-09-15T04:59:19.361Z,72.57
2022-09-15T05:01:46.573Z,72.49
2022-09-15T05:04:13.744Z,72.47
2022-09-15T05:06:42.399Z,71.82
2022-09-15T05:09:13.312Z,71.52
2022-09-15T05:11:40.871Z,71.22
2022-09-15T05:14:09.764Z,70.64
2022-09-15T05:16:36.983Z,70.41
2022-09-15T05:19:14.928Z,70.69
2022-09-15T05:21:42.467Z,71.90
2022-09-15T05:24:12.762Z,72.80
2022-09-15T05:26:44.125Z,72.93
2022-09-15T05:29:13.024Z,72.75
2022-09-15T05:31:39.916Z,73.23
2022-09-15T05:34:07.304Z,73.47
2022-09-15T05:36:34.684Z,72.37
2022-09-15T05:39:01.973Z,72.48
2022-09-15T05:41:29.983Z,71.19
2022-09-15T05:44:00.240Z,71.06
2022-09-15T05:46:33.614Z,71.24
2022-09-15T05:49:09.606Z,71.52
2022-09-15T05:51:42.160Z,71.07
2022-09-15T05:54:09.684Z,70.76
2022-09-15T05:56:36.677Z,70.19
2022-09-15T05:59:04.052Z,69.94
2022-09-15T06:01:32.244Z,69.44
2022-09-15T06:03:59.591Z,68.81
2022-09-15T06:06:27.116Z,68.31
2022-09-15T06:08:58.431Z,66.81
2022-09-15T06:11:29.390Z,67.05
2022-09-15T06:14:02.902Z,66.58
2022-09-15T06:16:33.954Z,67.50
2022-09-15T06:19:02.472Z,67.71
2022-09-15T06:21:31.543Z,67.41
2022-09-15T06:24:01.396Z,66.74
2022-09-15T06:26:28.822Z,64.11
2022-09-15T06:28:59.351Z,64.16
2022-09-15T06:34:12.017Z,62.58
2022-09-15T06:36:39.421Z,62.96
2022-09-15T06:39:07.258Z,62.71
2022-09-15T06:42:00.681Z,62.50
2022-09-15T06:44:22.888Z,62.33
2022-09-15T06:46:50.613Z,62.84
2022-09-15T06:49:18.366Z,62.73
2022-09-15T06:51:45.413Z,61.99
2022-09-15T06:54:12.733Z,61.80
2022-09-15T06:56:39.696Z,61.83
2022-09-15T06:59:06.839Z,61.46
2022-09-15T07:01:38.989Z,61.66
2022-09-15T07:04:11.219Z,61.56
2022-09-15T07:06:39.756Z,61.42
2022-09-15T07:09:12.499Z,61.28
2022-09-15T07:11:41.232Z,60.78
2022-09-15T07:14:10.638Z,60.28
2022-09-15T07:16:37.638Z,60.13
2022-09-15T07:19:06.274Z,58.61
2022-09-15T07:21:37.431Z,58.46
2022-09-15T07:24:07.273Z,58.70
2022-09-15T07:26:35.069Z,58.26
2022-09-15T07:32:04.627Z,56.92
2022-09-15T07:34:32.439Z,55.85
2022-09-15T07:37:00.682Z,54.44
2022-09-15T07:39:29.456Z,55.27
2022-09-15T07:42:01.956Z,54.84
2022-09-15T07:44:30.132Z,54.13
2022-09-15T07:46:57.396Z,53.71
2022-09-15T07:49:25.505Z,54.56
2022-09-15T07:51:52.510Z,53.64
2022-09-15T07:57:00.627Z,53.33
2022-09-15T08:02:19.184Z,52.55
2022-09-15T08:04:47.066Z,52.72
2022-09-15T08:07:14.401Z,53.17
2022-09-15T08:09:41.483Z,53.41
2022-09-15T08:12:09.290Z,53.01
2022-09-15T08:14:36.539Z,53.47
2022-09-15T08:17:09.394Z,52.71
2022-09-15T08:19:38.653Z,53.60
2022-09-15T08:22:05.782Z,53.88
2022-09-15T08:24:33.200Z,53.73
2022-09-15T08:27:00.649Z,54.01
2022-09-15T08:29:27.684Z,54.46
2022-09-15T08:31:54.938Z,54.05
2022-09-15T08:34:22.171Z,54.48
2022-09-15T08:36:49.163Z,54.60
2022-09-15T08:39:16.230Z,54.41
2022-09-15T08:41:46.812Z,54.02
2022-09-15T08:44:55.701Z,54.27
2022-09-15T08:47:31.349Z,54.45
2022-09-15T08:50:23.913Z,54.36
2022-09-15T08:52:58.054Z,54.62
2022-09-15T08:55:43.885Z,54.51
2022-09-15T08:58:16.762Z,55.14
2022-09-15T09:00:47.734Z,54.65
2022-09-15T09:03:37.266Z,55.20
2022-09-15T09:06:48.705Z,54.98
2022-09-15T09:09:26.439Z,54.72
2022-09-15T09:12:19.532Z,55.07
2022-09-15T09:14:46.985Z,55.06
2022-09-15T09:17:28.897Z,54.72
2022-09-15T09:20:25.499Z,55.13
2022-09-15T09:22:55.134Z,55.00
2022-09-15T09:31:21.461Z,55.83
2022-09-15T09:34:16.177Z,55.83
2022-09-15T09:36:55.226Z,56.10
2022-09-15T09:39:28.803Z,56.40
2022-09-15T09:41:59.275Z,56.58
2022-09-15T09:44:32.111Z,56.88
2022-09-15T09:47:01.955Z,56.64
2022-09-15T09:49:48.804Z,56.86
2022-09-15T09:52:34.401Z,56.88
2022-09-15T09:55:29.728Z,57.06
2022-09-15T09:58:33.741Z,57.45
2022-09-15T10:01:16.914Z,57.56
2022-09-15T10:03:48.876Z,57.85
2022-09-15T10:06:18.977Z,58.47
2022-09-15T10:09:04.074Z,57.37
2022-09-15T10:12:01.948Z,57.53
2022-09-15T10:14:33.380Z,56.97
2022-09-15T10:17:16.868Z,56.60
2022-09-15T10:19:50.134Z,57.54
2022-09-15T10:22:41.188Z,58.33
2022-09-15T10:28:25.951Z,57.60
2022-09-15T10:31:01.767Z,56.65
2022-09-15T10:33:45.021Z,55.80
2022-09-15T10:36:23.373Z,55.22
2022-09-15T10:39:07.500Z,55.48
2022-09-15T10:44:48.415Z,55.77
2022-09-15T10:47:43.913Z,56.01
2022-09-15T10:50:26.318Z,55.47
2022-09-15T10:53:18.121Z,55.98
2022-09-15T10:56:35.085Z,55.06
2022-09-15T10:59:19.069Z,54.72
2022-09-15T11:02:04.699Z,52.71
2022-09-15T11:04:56.886Z,52.21
2022-09-15T11:07:39.309Z,51.75
2022-09-15T11:10:15.864Z,51.30
2022-09-15T11:13:05.442Z,50.11
2022-09-15T11:16:05.245Z,50.34
2022-09-15T11:18:58.157Z,48.80
2022-09-15T11:21:41.036Z,48.47
2022-09-15T11:24:45.213Z,47.74
2022-09-15T11:27:35.331Z,47.46
2022-09-15T11:30:16.555Z,47.86
2022-09-15T11:32:46.397Z,48.19
2022-09-15T11:35:32.290Z,48.50
2022-09-15T11:38:28.400Z,48.10
2022-09-15T11:41:17.245Z,47.52
2022-09-15T11:43:59.098Z,46.72
2022-09-15T11:46:51.976Z,46.52
2022-09-15T11:49:23.535Z,46.42
2022-09-15T11:51:56.541Z,46.92
2022-09-15T11:54:41.923Z,47.13
2022-09-15T11:57:21.371Z,46.56
2022-09-15T12:00:05.443Z,46.03
2022-09-15T12:03:02.683Z,46.07
2022-09-15T12:05:57.838Z,45.93
2022-09-15T12:08:32.672Z,45.16
2022-09-15T12:11:02.969Z,44.91
2022-09-15T12:16:20.969Z,44.68
2022-09-15T12:19:14.696Z,44.86
2022-09-15T12:22:05.337Z,44.98
2022-09-15T12:24:45.957Z,44.98
2022-09-15T12:27:19.757Z,45.00
2022-09-15T12:29:54.793Z,46.07
2022-09-15T12:32:28.197Z,45.57
2022-09-15T12:35:26.411Z,45.83
2022-09-15T12:40:46.835Z,45.15
2022-09-15T12:43:13.809Z,45.64
2022-09-15T12:45:43.021Z,45.22
2022-09-15T12:48:21.944Z,45.13
2022-09-15T12:50:55.977Z,45.24
2022-09-15T12:53:26.759Z,45.47
2022-09-15T12:55:57.721Z,44.84
2022-09-15T12:58:34.796Z,45.44
2022-09-15T13:01:25.669Z,45.55
2022-09-15T13:03:57.949Z,45.32
2022-09-15T13:06:28.988Z,45.25
2022-09-15T13:09:02.230Z,45.16
2022-09-15T13:11:38.240Z,45.09
2022-09-15T13:14:10.677Z,44.97
2022-09-15T13:16:42.883Z,45.03
2022-09-15T13:19:46.850Z,45.25
2022-09-15T13:22:30.318Z,45.82
2022-09-15T13:28:16.798Z,46.21
2022-09-15T13:31:20.046Z,45.47
2022-09-15T13:41:06.793Z,46.44
2022-09-15T13:44:14.962Z,46.90
2022-09-15T13:47:13.479Z,47.35
2022-09-15T13:50:01.107Z,47.22
2022-09-15T13:52:46.634Z,47.45
2022-09-15T13:55:24.304Z,47.46
2022-09-15T14:00:45.765Z,47.93
2022-09-15T14:03:36.994Z,48.18
2022-09-15T14:06:39.350Z,48.23
2022-09-15T14:09:19.744Z,48.22
2022-09-15T14:11:53.399Z,48.10
2022-09-15T14:14:38.916Z,47.80
2022-09-15T14:17:20.176Z,48.23
2022-09-15T14:19:58.881Z,47.52
2022-09-15T14:22:30.278Z,47.57
2022-09-15T14:25:01.377Z,47.73
2022-09-15T14:27:33.940Z,47.38
2022-09-15T14:30:25.656Z,47.50
2022-09-15T14:33:04.630Z,47.81
2022-09-15T14:35:39.322Z,47.59
2022-09-15T14:38:22.682Z,47.77
2022-09-15T14:40:56.963Z,47.60
2022-09-15T14:43:25.933Z,47.33
2022-09-15T14:45:57.970Z,47.51
2022-09-15T14:48:30.194Z,47.57
2022-09-15T14:51:34.053Z,47.78
2022-09-15T14:54:03.581Z,47.61
2022-09-15T14:56:37.866Z,47.81
2022-09-15T14:59:08.989Z,47.74
2022-09-15T15:01:40.674Z,47.38
2022-09-15T15:04:26.092Z,47.42
2022-09-15T15:10:22.945Z,47.62
2022-09-15T15:12:56.387Z,47.99
2022-09-15T15:15:27.267Z,47.95
2022-09-15T15:18:36.278Z,47.99
2022-09-15T15:21:04.238Z,48.18
2022-09-15T15:23:35.146Z,49.07
2022-09-15T15:26:34.033Z,49.02
2022-09-15T15:29:01.644Z,49.19
2022-09-15T15:31:33.792Z,49.36
2022-09-15T15:34:07.832Z,49.46
2022-09-15T15:36:36.684Z,49.65
2022-09-15T15:39:06.914Z,49.79
2022-09-15T15:41:39.900Z,50.02
2022-09-15T15:44:19.204Z,49.95
2022-09-15T15:47:22.944Z,50.28
2022-09-15T15:50:15.868Z,50.78
2022-09-15T15:52:44.064Z,51.18
2022-09-15T15:55:22.790Z,51.43
2022-09-15T15:57:55.136Z,51.90
2022-09-15T16:00:44.311Z,52.16
2022-09-15T16:03:13.192Z,52.45
2022-09-15T16:05:44.215Z,52.70
2022-09-15T16:08:24.060Z,53.09
2022-09-15T16:10:54.973Z,53.41
2022-09-15T16:13:22.738Z,53.64
2022-09-15T16:15:53.238Z,53.95
2022-09-15T16:18:23.129Z,54.06
2022-09-15T16:20:50.377Z,54.75
2022-09-15T16:23:20.349Z,54.81
2022-09-15T16:26:08.116Z,54.97
2022-09-15T16:28:35.083Z,54.80
2022-09-15T16:31:03.059Z,54.95
2022-09-15T16:33:33.411Z,55.13
2022-09-15T16:36:09.370Z,55.00
2022-09-15T16:38:37.413Z,54.98
2022-09-15T16:41:13.286Z,54.87
2022-09-15T16:43:44.522Z,55.21
2022-09-15T16:46:13.484Z,54.91
2022-09-15T16:48:44.976Z,55.34
2022-09-15T16:51:34.750Z,55.35
2022-09-15T16:54:04.749Z,55.45
2022-09-15T16:56:52.695Z,55.88
2022-09-15T16:59:20.114Z,55.85
2022-09-15T17:01:47.289Z,56.36
2022-09-15T17:04:19.507Z,56.60
2022-09-15T17:06:47.598Z,56.64
2022-09-15T17:09:16.305Z,57.02
2022-09-15T17:11:43.381Z,57.49
2022-09-15T17:14:24.955Z,57.44
2022-09-15T17:16:53.298Z,57.48
2022-09-15T17:19:21.994Z,57.79
2022-09-15T17:21:53.501Z,58.17
2022-09-15T17:24:20.848Z,58.38
2022-09-15T17:26:51.090Z,58.87
2022-09-15T17:29:19.602Z,59.43
2022-09-15T17:34:29.331Z,59.96
2022-09-15T17:36:57.337Z,59.87
2022-09-15T17:39:25.648Z,60.09
2022-09-15T17:41:54.890Z,59.64
2022-09-15T17:44:22.499Z,59.23
2022-09-15T17:46:49.553Z,58.67
2022-09-15T17:49:16.887Z,58.66
2022-09-15T17:51:45.099Z,58.86
2022-09-15T17:54:12.393Z,58.93
2022-09-15T17:56:39.676Z,58.81
2022-09-15T17:59:07.312Z,58.80
2022-09-15T18:01:34.439Z,59.30
2022-09-15T18:04:02.490Z,59.11
2022-09-15T18:06:29.929Z,59.28
2022-09-15T18:08:57.706Z,58.75
2022-09-15T18:11:27.238Z,58.52
2022-09-15T18:13:55.423Z,59.10
2022-09-15T18:16:22.493Z,58.78
2022-09-15T18:18:53.027Z,58.53
2022-09-15T18:21:27.061Z,57.98
2022-09-15T18:23:56.143Z,57.79
2022-09-15T18:26:29.924Z,57.75
2022-09-15T18:28:58.788Z,57.18
2022-09-15T18:31:26.697Z,56.97
2022-09-15T18:33:54.926Z,56.67
2022-09-15T18:36:26.289Z,57.41
2022-09-15T18:38:53.529Z,57.43
2022-09-15T18:41:23.741Z,57.26
2022-09-15T18:43:57.279Z,57.40
2022-09-15T18:46:24.640Z,57.66
2022-09-15T18:48:52.996Z,57.33
2022-09-15T18:51:50.582Z,57.64
2022-09-15T18:56:59.276Z,57.83
2022-09-15T18:59:34.830Z,58.15
2022-09-15T19:04:34.173Z,58.51
2022-09-15T19:07:03.191Z,58.71
2022-09-15T19:09:30.862Z,58.76
2022-09-15T19:12:00.565Z,59.11
2022-09-15T19:14:31.517Z,59.06
2022-09-15T19:17:08.569Z,59.44
2022-09-15T19:19:36.027Z,59.61
2022-09-15T19:22:03.522Z,59.65
2022-09-15T19:24:33.902Z,59.92
2022-09-15T19:27:02.066Z,59.67
2022-09-15T19:29:34.875Z,59.70
2022-09-15T19:32:06.461Z,59.63
2022-09-15T19:34:35.063Z,59.82
2022-09-15T19:37:02.881Z,59.54
2022-09-15T19:39:32.573Z,60.17
2022-09-15T19:42:00.193Z,59.78
2022-09-15T19:44:27.624Z,59.97
2022-09-15T19:47:03.969Z,60.39
2022-09-15T19:49:31.274Z,60.49
2022-09-15T19:51:58.351Z,60.88
2022-09-15T19:54:28.852Z,60.79
2022-09-15T19:56:59.430Z,60.88
2022-09-15T19:59:32.281Z,60.81
2022-09-15T20:02:01.917Z,60.90
2022-09-15T20:04:30.435Z,60.92
2022-09-15T20:06:57.489Z,60.88
2022-09-15T20:09:27.573Z,60.72
2022-09-15T20:11:57.200Z,60.70
2022-09-15T20:14:26.364Z,60.80
2022-09-15T20:19:38.500Z,60.85
2022-09-15T20:22:10.794Z,60.56
2022-09-15T20:24:40.797Z,60.91
2022-09-15T20:27:10.248Z,61.02
2022-09-15T20:29:37.795Z,60.99
2022-09-15T20:32:04.939Z,61.02
2022-09-15T20:34:34.594Z,61.45
2022-09-15T20:37:03.076Z,61.44
2022-09-15T20:39:30.439Z,61.42
2022-09-15T20:42:00.830Z,61.69
2022-09-15T20:44:41.220Z,61.96
2022-09-15T20:47:09.678Z,61.95
2022-09-15T20:50:05.856Z,62.16
2022-09-15T20:52:37.592Z,62.23
2022-09-15T20:55:06.546Z,62.55
2022-09-15T20:57:33.816Z,62.89
2022-09-15T21:00:00.946Z,63.00
2022-09-15T21:02:30.797Z,63.53
2022-09-15T21:04:58.160Z,63.63
2022-09-15T21:07:25.327Z,63.73
2022-09-15T21:09:52.341Z,63.44
2022-09-15T21:12:19.667Z,63.22
2022-09-15T21:14:46.812Z,63.43
2022-09-15T21:17:25.014Z,63.09
2022-09-15T21:19:54.116Z,63.41
2022-09-15T21:22:21.074Z,63.44
2022-09-15T21:24:48.127Z,63.57
2022-09-15T21:27:27.424Z,63.70
2022-09-15T21:29:54.825Z,63.57
2022-09-15T21:32:22.208Z,63.95
2022-09-15T21:34:49.145Z,64.01
2022-09-15T21:37:16.076Z,64.20
2022-09-15T21:39:43.251Z,63.93
2022-09-15T21:42:14.050Z,63.96
2022-09-15T21:44:41.005Z,64.06
2022-09-15T21:47:08.540Z,64.07
2022-09-15T21:49:35.546Z,64.06
2022-09-15T21:52:03.123Z,63.98
2022-09-15T21:54:31.568Z,64.15
2022-09-15T21:56:58.534Z,64.02
2022-09-15T21:59:25.523Z,64.05
2022-09-15T22:01:54.412Z,64.39
2022-09-15T22:04:21.499Z,64.41
2022-09-15T22:06:50.245Z,65.14
2022-09-15T22:09:21.467Z,65.22
2022-09-15T22:11:49.401Z,65.64
2022-09-15T22:14:17.224Z,65.44
2022-09-15T22:16:44.821Z,65.23
2022-09-15T22:19:12.174Z,65.64
2022-09-15T22:21:42.062Z,65.24
2022-09-15T22:24:13.692Z,64.92
2022-09-15T22:26:42.735Z,65.17
2022-09-15T22:29:10.452Z,65.39
2022-09-15T22:31:38.007Z,65.23
2022-09-15T22:34:05.250Z,65.93
2022-09-15T22:36:34.379Z,65.69
2022-09-15T22:39:05.685Z,65.45
2022-09-15T22:41:39.935Z,65.71
2022-09-15T22:44:16.516Z,65.83
2022-09-15T22:46:43.509Z,65.72
2022-09-15T22:49:11.409Z,65.87
2022-09-15T22:51:38.479Z,66.12
2022-09-15T22:54:05.538Z,66.25
2022-09-15T22:56:33.442Z,66.02
2022-09-15T22:59:00.805Z,66.35
2022-09-15T23:01:30.106Z,66.59
2022-09-15T23:04:00.341Z,67.03
2022-09-15T23:06:30.779Z,67.21
2022-09-15T23:09:00.330Z,67.24
2022-09-15T23:11:29.398Z,66.98
2022-09-15T23:13:56.898Z,67.21
2022-09-15T23:16:25.462Z,67.24
2022-09-15T23:18:55.349Z,67.52
2022-09-15T23:21:22.420Z,67.83
2022-09-15T23:23:49.777Z,67.94
2022-09-15T23:26:18.945Z,68.73
2022-09-15T23:28:46.365Z,68.65
2022-09-15T23:31:14.087Z,68.77
2022-09-15T23:33:42.132Z,69.13
2022-09-15T23:36:15.688Z,68.53
2022-09-15T23:38:45.209Z,68.40
2022-09-15T23:41:13.140Z,68.08
2022-09-15T23:43:40.372Z,68.25
2022-09-15T23:46:08.213Z,68.08
2022-09-15T23:48:35.546Z,68.08
2022-09-15T23:51:02.831Z,67.78
2022-09-15T23:53:30.185Z,67.98
2022-09-15T23:55:57.135Z,67.94
2022-09-15T23:58:24.278Z,68.02
